Time;durP1;ratioP1;P1;durP2;ratioP2;P2;SDS_P1;SDS_P2;PMS_P1;PMS_P2;Temp;Humidity;BMP_temperature;BMP_pressure;BME280_temperature;BME280_humidity;BME280_pressure;Samples;Min_cycle;Max_cycle;Signal;HPM_P1;HPM_P2
2022/12/07 00:00:04;;;;;;;10.40;6.88;;;;;;;;;;5115682;28;20197;-67
2022/12/07 00:02:32;;;;;;;8.23;6.80;;;;;;;;;;5115389;28;20198;-67
2022/12/07 00:04:59;;;;;;;8.30;6.95;;;;;;;;;;5115807;28;20451;-67
2022/12/07 00:07:26;;;;;;;8.93;6.85;;;;;;;;;;5115588;28;20196;-66
2022/12/07 00:09:54;;;;;;;9.48;7.05;;;;;;;;;;5114696;28;20233;-66
2022/12/07 00:12:21;;;;;;;8.88;7.20;;;;;;;;;;5115592;28;20195;-67
2022/12/07 00:14:48;;;;;;;10.48;7.70;;;;;;;;;;5115303;28;20282;-66
2022/12/07 00:17:15;;;;;;;10.80;7.57;;;;;;;;;;5115183;28;20194;-67
2022/12/07 00:19:42;;;;;;;12.00;7.53;;;;;;;;;;5115475;28;20561;-67
2022/12/07 00:22:09;;;;;;;11.15;8.18;;;;;;;;;;5115204;28;20214;-67
2022/12/07 00:24:35;;;;;;;11.55;7.57;;;;;;;;;;5115302;28;20193;-67
2022/12/07 00:27:04;;;;;;;11.10;7.97;;;;;;;;;;5115090;28;20186;-67
2022/12/07 00:29:31;;;;;;;10.88;7.65;;;;;;;;;;5114906;28;20222;-67
2022/12/07 00:31:58;;;;;;;9.60;7.55;;;;;;;;;;5115316;28;20590;-67
2022/12/07 00:34:24;;;;;;;10.20;7.85;;;;;;;;;;5115034;28;20186;-67
2022/12/07 00:36:52;;;;;;;12.30;8.85;;;;;;;;;;5115238;28;20650;-67
2022/12/07 00:39:18;;;;;;;12.63;8.95;;;;;;;;;;5115089;28;20275;-67
2022/12/07 00:41:45;;;;;;;12.48;8.40;;;;;;;;;;5115451;28;20202;-67
2022/12/07 00:44:14;;;;;;;11.68;8.73;;;;;;;;;;5114896;28;20258;-67
2022/12/07 00:46:41;;;;;;;10.52;7.72;;;;;;;;;;5114462;28;20697;-67
2022/12/07 00:49:07;;;;;;;11.88;8.52;;;;;;;;;;5114791;28;20213;-67
2022/12/07 00:51:34;;;;;;;7.72;6.65;;;;;;;;;;5115117;28;20187;-67
2022/12/07 00:54:01;;;;;;;8.98;7.95;;;;;;;;;;5114594;28;20285;-67
2022/12/07 00:56:29;;;;;;;8.63;7.22;;;;;;;;;;5114448;28;20210;-67
2022/12/07 00:58:57;;;;;;;8.10;7.18;;;;;;;;;;5114328;28;20191;-67
2022/12/07 01:01:26;;;;;;;9.50;7.53;;;;;;;;;;5114575;28;20191;-67
2022/12/07 01:03:53;;;;;;;8.88;6.57;;;;;;;;;;5114563;28;20608;-67
2022/12/07 01:06:20;;;;;;;7.18;6.05;;;;;;;;;;5114291;28;20278;-67
2022/12/07 01:08:47;;;;;;;10.30;7.63;;;;;;;;;;5114084;28;20210;-67
2022/12/07 01:11:15;;;;;;;7.88;6.63;;;;;;;;;;5114149;28;20200;-67
2022/12/07 01:13:42;;;;;;;8.32;7.35;;;;;;;;;;5114311;28;20240;-67
2022/12/07 01:16:11;;;;;;;8.57;7.63;;;;;;;;;;5114266;28;20278;-67
2022/12/07 01:18:39;;;;;;;8.23;6.88;;;;;;;;;;5114150;28;20281;-67
2022/12/07 01:21:07;;;;;;;9.52;7.63;;;;;;;;;;5113950;28;20247;-67
2022/12/07 01:23:34;;;;;;;8.40;6.53;;;;;;;;;;5113994;28;20259;-67
2022/12/07 01:26:02;;;;;;;6.93;6.25;;;;;;;;;;5113869;28;20201;-67
2022/12/07 01:28:29;;;;;;;7.93;7.13;;;;;;;;;;5113960;28;20218;-67
2022/12/07 01:30:57;;;;;;;6.55;5.60;;;;;;;;;;5113964;28;20195;-67
2022/12/07 01:33:24;;;;;;;7.13;6.43;;;;;;;;;;5113760;28;20680;-67
2022/12/07 01:35:52;;;;;;;7.47;6.78;;;;;;;;;;5113864;28;20278;-67
2022/12/07 01:38:19;;;;;;;7.43;6.72;;;;;;;;;;5113607;28;20286;-67
2022/12/07 01:40:46;;;;;;;7.05;6.15;;;;;;;;;;5113939;28;20203;-67
2022/12/07 01:43:18;;;;;;;6.78;5.93;;;;;;;;;;5113735;28;20202;-67
2022/12/07 01:45:46;;;;;;;6.50;5.90;;;;;;;;;;5113708;28;20201;-67
2022/12/07 01:48:14;;;;;;;6.05;5.45;;;;;;;;;;5113436;28;20312;-67
2022/12/07 01:50:43;;;;;;;5.57;5.10;;;;;;;;;;5113574;28;20566;-67
2022/12/07 01:53:12;;;;;;;5.72;5.22;;;;;;;;;;5113778;28;20293;-67
2022/12/07 01:55:41;;;;;;;6.53;5.82;;;;;;;;;;5113561;28;20186;-67
2022/12/07 01:58:08;;;;;;;5.90;5.40;;;;;;;;;;5113623;28;20201;-67
2022/12/07 02:00:35;;;;;;;6.88;6.20;;;;;;;;;;5113453;28;20665;-67
2022/12/07 02:03:05;;;;;;;5.25;4.82;;;;;;;;;;5113472;28;20195;-67
2022/12/07 02:05:32;;;;;;;7.25;5.20;;;;;;;;;;5113285;28;20281;-67
2022/12/07 02:08:00;;;;;;;6.53;5.93;;;;;;;;;;5113445;28;20273;-67
2022/12/07 02:10:29;;;;;;;6.18;5.47;;;;;;;;;;5113371;28;20221;-67
2022/12/07 02:12:58;;;;;;;5.53;5.03;;;;;;;;;;5113383;28;20291;-67
2022/12/07 02:15:28;;;;;;;7.25;6.10;;;;;;;;;;5113335;28;20191;-67
2022/12/07 02:17:57;;;;;;;5.80;5.20;;;;;;;;;;5112964;28;20277;-67
2022/12/07 02:20:29;;;;;;;5.25;4.75;;;;;;;;;;5113427;28;20222;-67
2022/12/07 02:23:05;;;;;;;5.03;4.50;;;;;;;;;;5113226;28;20247;-67
2022/12/07 02:25:43;;;;;;;5.57;5.07;;;;;;;;;;5113141;28;20718;-67
2022/12/07 02:28:14;;;;;;;5.65;5.15;;;;;;;;;;5113057;28;20664;-66
2022/12/07 02:30:45;;;;;;;5.03;4.63;;;;;;;;;;5113241;28;20222;-66
2022/12/07 02:33:15;;;;;;;5.10;4.60;;;;;;;;;;5115028;28;20285;-66
2022/12/07 02:35:44;;;;;;;5.40;4.90;;;;;;;;;;5117327;28;20226;-67
2022/12/07 02:38:13;;;;;;;5.30;4.80;;;;;;;;;;5117229;28;20228;-66
2022/12/07 02:40:43;;;;;;;5.68;5.07;;;;;;;;;;5117139;28;20194;-66
2022/12/07 02:43:12;;;;;;;4.85;4.35;;;;;;;;;;5117379;28;20191;-67
2022/12/07 02:45:40;;;;;;;6.95;4.47;;;;;;;;;;5117363;28;20197;-66
2022/12/07 02:48:10;;;;;;;5.10;4.70;;;;;;;;;;5116828;28;20229;-66
2022/12/07 02:50:37;;;;;;;9.32;5.57;;;;;;;;;;5116927;28;20223;-67
2022/12/07 02:53:04;;;;;;;6.53;5.10;;;;;;;;;;5116949;28;20576;-66
2022/12/07 02:55:35;;;;;;;7.05;5.00;;;;;;;;;;5116794;28;20188;-66
2022/12/07 02:58:08;;;;;;;5.38;4.88;;;;;;;;;;5116944;28;20194;-66
2022/12/07 03:00:38;;;;;;;5.75;5.25;;;;;;;;;;5117004;28;20276;-66
2022/12/07 03:03:06;;;;;;;4.93;4.40;;;;;;;;;;5116949;28;20191;-66
2022/12/07 03:05:50;;;;;;;5.82;5.22;;;;;;;;;;5116625;28;20285;-66
2022/12/07 03:08:22;;;;;;;4.85;4.35;;;;;;;;;;5116819;28;20604;-66
2022/12/07 03:10:53;;;;;;;4.87;4.47;;;;;;;;;;5116543;28;20701;-66
2022/12/07 03:13:24;;;;;;;4.50;4.20;;;;;;;;;;5116647;28;20452;-67
2022/12/07 03:15:55;;;;;;;5.00;4.50;;;;;;;;;;5116468;28;20202;-67
2022/12/07 03:18:23;;;;;;;4.85;4.45;;;;;;;;;;5116249;28;20198;-67
2022/12/07 03:20:53;;;;;;;4.65;4.25;;;;;;;;;;5116476;28;20194;-67
2022/12/07 03:23:21;;;;;;;5.03;4.63;;;;;;;;;;5116599;28;20545;-67
2022/12/07 03:25:50;;;;;;;4.70;4.25;;;;;;;;;;5116360;28;20198;-67
2022/12/07 03:28:19;;;;;;;5.35;4.85;;;;;;;;;;5116466;28;20201;-68
2022/12/07 03:30:49;;;;;;;4.90;4.38;;;;;;;;;;5116018;28;20559;-67
2022/12/07 03:33:19;;;;;;;4.90;4.50;;;;;;;;;;5116334;28;20555;-67
2022/12/07 03:35:50;;;;;;;4.85;4.35;;;;;;;;;;5116122;28;20190;-67
2022/12/07 03:38:20;;;;;;;4.90;4.43;;;;;;;;;;5116269;28;20282;-67
2022/12/07 03:40:50;;;;;;;5.50;5.00;;;;;;;;;;5115986;28;20244;-67
2022/12/07 03:43:18;;;;;;;5.82;4.40;;;;;;;;;;5115851;28;20190;-67
2022/12/07 03:45:46;;;;;;;4.55;4.10;;;;;;;;;;5114795;28;20190;-68
2022/12/07 03:48:22;;;;;;;4.50;4.05;;;;;;;;;;5115688;28;20287;-67
2022/12/07 03:50:52;;;;;;;5.45;4.95;;;;;;;;;;5114288;28;20630;-67
2022/12/07 03:53:22;;;;;;;4.95;4.50;;;;;;;;;;5115888;28;20691;-68
2022/12/07 03:55:50;;;;;;;4.80;4.10;;;;;;;;;;5115564;28;20194;-68
2022/12/07 03:58:17;;;;;;;4.72;4.32;;;;;;;;;;5115812;28;20201;-68
2022/12/07 04:00:45;;;;;;;6.00;4.75;;;;;;;;;;5115683;28;20191;-68
2022/12/07 04:03:12;;;;;;;6.20;5.28;;;;;;;;;;5115771;28;20202;-68
2022/12/07 04:05:40;;;;;;;6.10;5.50;;;;;;;;;;5115716;28;20194;-68
2022/12/07 04:08:07;;;;;;;5.68;4.90;;;;;;;;;;5115418;28;20186;-68
2022/12/07 04:10:35;;;;;;;6.45;5.75;;;;;;;;;;5115401;28;20218;-68
2022/12/07 04:13:02;;;;;;;7.20;5.85;;;;;;;;;;5115681;28;20632;-67
2022/12/07 04:15:29;;;;;;;6.68;6.00;;;;;;;;;;5115596;28;20274;-67
2022/12/07 04:17:56;;;;;;;6.18;5.57;;;;;;;;;;5115513;28;20565;-67
2022/12/07 04:20:23;;;;;;;7.13;6.43;;;;;;;;;;5115258;28;20281;-67
2022/12/07 04:22:50;;;;;;;7.10;6.38;;;;;;;;;;5115010;28;20218;-67
2022/12/07 04:25:17;;;;;;;6.65;6.00;;;;;;;;;;5115018;28;20284;-67
2022/12/07 04:27:45;;;;;;;9.75;6.20;;;;;;;;;;5115201;28;20653;-67
2022/12/07 04:30:12;;;;;;;10.23;7.10;;;;;;;;;;5115005;28;20210;-67
2022/12/07 04:32:39;;;;;;;6.88;6.03;;;;;;;;;;5115105;28;20292;-67
2022/12/07 04:35:06;;;;;;;8.80;6.05;;;;;;;;;;5114854;28;20197;-67
2022/12/07 04:37:33;;;;;;;7.03;6.20;;;;;;;;;;5114846;28;20239;-67
2022/12/07 04:40:00;;;;;;;12.20;7.40;;;;;;;;;;5113611;28;20284;-67
2022/12/07 04:42:27;;;;;;;9.48;7.47;;;;;;;;;;5114923;28;20195;-67
2022/12/07 04:44:55;;;;;;;9.30;7.13;;;;;;;;;;5114934;28;20548;-67
2022/12/07 04:47:22;;;;;;;8.75;7.85;;;;;;;;;;5114710;28;20222;-67
2022/12/07 04:49:49;;;;;;;12.80;8.30;;;;;;;;;;5114769;28;20222;-67
2022/12/07 04:52:16;;;;;;;8.45;7.55;;;;;;;;;;5114507;28;20654;-66
2022/12/07 04:54:43;;;;;;;8.00;6.80;;;;;;;;;;5114712;28;20194;-66
2022/12/07 04:57:10;;;;;;;9.38;7.95;;;;;;;;;;5114394;28;20278;-66
2022/12/07 04:59:36;;;;;;;9.25;7.72;;;;;;;;;;5114481;28;20200;-66
2022/12/07 05:02:05;;;;;;;10.00;7.53;;;;;;;;;;5114474;28;20237;-67
2022/12/07 05:04:32;;;;;;;9.38;7.63;;;;;;;;;;5114249;28;20230;-66
2022/12/07 05:06:58;;;;;;;11.05;8.65;;;;;;;;;;5114250;28;20645;-66
2022/12/07 05:09:25;;;;;;;9.45;7.35;;;;;;;;;;5114309;28;20193;-67
2022/12/07 05:11:52;;;;;;;11.82;8.73;;;;;;;;;;5114336;28;20202;-66
2022/12/07 05:14:20;;;;;;;11.18;8.35;;;;;;;;;;5114136;28;20195;-66
2022/12/07 05:16:48;;;;;;;12.40;9.65;;;;;;;;;;5114356;28;20193;-66
2022/12/07 05:19:16;;;;;;;10.90;9.00;;;;;;;;;;5113920;28;20185;-66
2022/12/07 05:21:43;;;;;;;11.38;9.07;;;;;;;;;;5114268;28;20679;-67
2022/12/07 05:24:11;;;;;;;12.13;8.77;;;;;;;;;;5114327;28;20186;-66
2022/12/07 05:26:38;;;;;;;14.25;10.55;;;;;;;;;;5114047;28;20296;-66
2022/12/07 05:29:05;;;;;;;19.70;10.75;;;;;;;;;;5113975;28;20244;-66
2022/12/07 05:31:32;;;;;;;11.77;8.70;;;;;;;;;;5114006;28;20256;-66
2022/12/07 05:33:59;;;;;;;14.82;10.88;;;;;;;;;;5114180;28;20564;-66
2022/12/07 05:36:30;;;;;;;12.40;10.25;;;;;;;;;;5114204;28;20282;-66
2022/12/07 05:38:57;;;;;;;12.88;9.93;;;;;;;;;;5113856;28;20191;-66
2022/12/07 05:44:09;;;;;;;16.13;11.27;;;;;;;;;;5113558;28;20631;-66
2022/12/07 05:46:36;;;;;;;13.82;11.50;;;;;;;;;;5113488;28;20232;-66
2022/12/07 05:49:03;;;;;;;14.05;11.00;;;;;;;;;;5113719;28;20277;-65
2022/12/07 05:51:32;;;;;;;15.40;10.30;;;;;;;;;;5113370;28;20229;-66
2022/12/07 05:53:58;;;;;;;15.73;11.60;;;;;;;;;;5113417;28;20294;-66
2022/12/07 05:56:26;;;;;;;19.52;11.65;;;;;;;;;;5113580;28;20546;-65
2022/12/07 06:01:40;;;;;;;15.02;11.77;;;;;;;;;;5106265;28;20661;-66
2022/12/07 06:04:07;;;;;;;19.23;13.00;;;;;;;;;;5113478;28;20217;-66
2022/12/07 06:06:35;;;;;;;20.42;13.45;;;;;;;;;;5113267;28;20279;-65
2022/12/07 06:09:02;;;;;;;20.52;13.63;;;;;;;;;;5112621;28;20548;-66
2022/12/07 06:14:10;;;;;;;18.42;11.88;;;;;;;;;;5068358;28;20193;-66
2022/12/07 06:16:38;;;;;;;18.20;12.32;;;;;;;;;;5113312;28;20194;-66
2022/12/07 06:19:05;;;;;;;20.23;12.38;;;;;;;;;;5113188;28;20197;-66
2022/12/07 06:21:32;;;;;;;20.08;12.40;;;;;;;;;;5113050;28;20783;-66
2022/12/07 06:24:00;;;;;;;17.42;12.50;;;;;;;;;;5112946;28;20194;-66
2022/12/07 06:26:27;;;;;;;20.90;13.75;;;;;;;;;;5113336;28;20193;-66
2022/12/07 06:28:54;;;;;;;19.00;13.15;;;;;;;;;;5113124;28;20232;-66
2022/12/07 06:31:21;;;;;;;22.08;14.90;;;;;;;;;;5113326;28;20221;-66
2022/12/07 06:33:49;;;;;;;21.80;14.38;;;;;;;;;;5113126;28;20219;-66
2022/12/07 06:36:15;;;;;;;20.05;13.13;;;;;;;;;;5113131;28;20193;-66
2022/12/07 06:38:42;;;;;;;19.52;14.20;;;;;;;;;;5113117;28;20303;-66
2022/12/07 06:41:11;;;;;;;20.00;13.52;;;;;;;;;;5113257;28;20281;-65
2022/12/07 06:43:38;;;;;;;21.40;14.13;;;;;;;;;;5112852;28;20187;-65
2022/12/07 06:46:05;;;;;;;19.15;14.23;;;;;;;;;;5112788;28;20218;-66
2022/12/07 06:48:32;;;;;;;19.30;14.05;;;;;;;;;;5112766;28;20191;-66
2022/12/07 06:50:59;;;;;;;18.63;14.38;;;;;;;;;;5112806;28;20222;-65
2022/12/07 06:53:26;;;;;;;19.27;13.93;;;;;;;;;;5112885;28;20708;-66
2022/12/07 06:55:52;;;;;;;18.23;13.13;;;;;;;;;;5112891;28;20204;-66
2022/12/07 06:58:21;;;;;;;18.00;12.23;;;;;;;;;;5112739;28;20193;-65
2022/12/07 07:00:49;;;;;;;20.42;13.10;;;;;;;;;;5112758;28;20615;-66
2022/12/07 07:03:16;;;;;;;23.50;15.90;;;;;;;;;;5112691;28;20301;-66
2022/12/07 07:05:43;;;;;;;18.83;14.55;;;;;;;;;;5112911;28;20590;-66
2022/12/07 07:08:10;;;;;;;20.77;15.02;;;;;;;;;;5112348;28;20286;-66
2022/12/07 07:10:37;;;;;;;22.42;15.27;;;;;;;;;;5112726;28;20215;-66
2022/12/07 07:13:05;;;;;;;23.95;14.98;;;;;;;;;;5112528;28;20213;-66
2022/12/07 07:15:34;;;;;;;23.08;15.50;;;;;;;;;;5112603;28;20193;-66
2022/12/07 07:18:03;;;;;;;21.80;15.43;;;;;;;;;;5112515;28;20186;-66
2022/12/07 07:20:30;;;;;;;19.77;13.57;;;;;;;;;;5116333;28;20202;-66
2022/12/07 07:22:57;;;;;;;22.48;16.25;;;;;;;;;;5116392;28;20491;-66
2022/12/07 07:25:24;;;;;;;20.48;14.95;;;;;;;;;;5116399;28;20311;-66
2022/12/07 07:27:51;;;;;;;24.17;14.25;;;;;;;;;;5116254;28;20233;-66
2022/12/07 07:30:18;;;;;;;22.42;14.40;;;;;;;;;;5115984;28;20225;-66
2022/12/07 07:32:46;;;;;;;18.17;13.75;;;;;;;;;;5116496;28;20194;-66
2022/12/07 07:35:13;;;;;;;23.15;15.93;;;;;;;;;;5116276;28;20231;-66
2022/12/07 07:37:40;;;;;;;20.85;14.30;;;;;;;;;;5116164;28;20244;-67
2022/12/07 07:40:08;;;;;;;22.55;13.75;;;;;;;;;;5115924;28;20187;-66
2022/12/07 07:42:35;;;;;;;22.63;16.33;;;;;;;;;;5115961;28;20223;-66
2022/12/07 07:45:02;;;;;;;19.30;13.60;;;;;;;;;;5115904;28;20226;-66
2022/12/07 07:47:29;;;;;;;20.98;13.18;;;;;;;;;;5115766;28;20309;-66
2022/12/07 07:49:57;;;;;;;18.40;13.40;;;;;;;;;;5115863;28;20191;-66
2022/12/07 07:52:24;;;;;;;18.50;13.68;;;;;;;;;;5115798;28;20194;-67
2022/12/07 07:54:51;;;;;;;17.27;13.10;;;;;;;;;;5115714;28;20554;-67
2022/12/07 07:57:18;;;;;;;16.73;13.93;;;;;;;;;;5115624;28;20195;-67
2022/12/07 07:59:45;;;;;;;19.40;13.10;;;;;;;;;;5115299;28;20278;-67
2022/12/07 08:02:15;;;;;;;20.77;12.93;;;;;;;;;;5115622;28;20951;-67
2022/12/07 08:04:42;;;;;;;16.23;13.02;;;;;;;;;;5115600;28;20232;-67
2022/12/07 08:07:10;;;;;;;24.40;14.80;;;;;;;;;;5115295;28;20201;-66
2022/12/07 08:09:37;;;;;;;17.83;13.60;;;;;;;;;;5115377;28;20281;-67
2022/12/07 08:12:04;;;;;;;17.75;14.07;;;;;;;;;;5115342;28;20223;-67
2022/12/07 08:14:31;;;;;;;18.03;14.03;;;;;;;;;;5115571;28;20198;-67
2022/12/07 08:16:58;;;;;;;17.52;12.57;;;;;;;;;;5115457;28;20548;-66
2022/12/07 08:19:25;;;;;;;20.98;14.25;;;;;;;;;;5115411;28;20277;-67
2022/12/07 08:21:52;;;;;;;20.52;12.50;;;;;;;;;;5114991;28;20195;-63
2022/12/07 08:24:20;;;;;;;17.15;12.75;;;;;;;;;;5115132;28;20189;-63
2022/12/07 08:26:47;;;;;;;13.80;10.45;;;;;;;;;;5115072;28;20278;-68
2022/12/07 08:29:14;;;;;;;14.10;11.35;;;;;;;;;;5115268;28;20608;-62
2022/12/07 08:31:41;;;;;;;18.30;14.00;;;;;;;;;;5112970;28;20878;-67
2022/12/07 08:34:07;;;;;;;16.85;11.63;;;;;;;;;;5105063;28;20191;-67
2022/12/07 08:36:34;;;;;;;12.50;10.07;;;;;;;;;;5095458;28;20196;-67
2022/12/07 08:39:01;;;;;;;15.15;9.95;;;;;;;;;;5097202;28;20557;-69
2022/12/07 08:41:30;;;;;;;13.45;8.63;;;;;;;;;;5114662;28;20197;-69
2022/12/07 08:43:57;;;;;;;14.25;8.30;;;;;;;;;;5114933;28;20248;-68
2022/12/07 08:46:27;;;;;;;11.77;9.02;;;;;;;;;;5114709;28;20310;-77
2022/12/07 08:48:56;;;;;;;13.67;8.13;;;;;;;;;;5113483;28;20198;-63
2022/12/07 08:51:23;;;;;;;14.63;8.18;;;;;;;;;;5114653;28;20560;-71
2022/12/07 08:53:51;;;;;;;9.27;6.80;;;;;;;;;;5102794;28;20278;-64
2022/12/07 08:56:18;;;;;;;6.93;5.93;;;;;;;;;;5094416;28;20454;-63
2022/12/07 08:58:46;;;;;;;5.30;4.80;;;;;;;;;;5094051;28;20549;-73
2022/12/07 09:01:13;;;;;;;5.40;4.47;;;;;;;;;;5094259;28;20202;-66
2022/12/07 09:03:40;;;;;;;4.82;3.80;;;;;;;;;;5093949;28;20212;-64
2022/12/07 09:06:07;;;;;;;4.18;3.45;;;;;;;;;;5093898;28;20274;-62
2022/12/07 09:08:35;;;;;;;2.80;2.60;;;;;;;;;;5093941;28;20555;-73
2022/12/07 09:11:02;;;;;;;2.40;2.20;;;;;;;;;;5093927;28;20219;-74
2022/12/07 09:13:29;;;;;;;5.15;2.30;;;;;;;;;;5093933;28;20199;-71
2022/12/07 09:15:57;;;;;;;2.10;1.60;;;;;;;;;;5093927;28;20202;-67
2022/12/07 09:18:24;;;;;;;1.80;1.70;;;;;;;;;;5093803;28;20198;-66
2022/12/07 09:20:51;;;;;;;1.63;1.52;;;;;;;;;;5093364;28;20197;-65
2022/12/07 09:23:18;;;;;;;2.13;2.03;;;;;;;;;;5093742;28;20195;-71
2022/12/07 09:25:45;;;;;;;2.25;1.95;;;;;;;;;;5093702;28;20190;-63
2022/12/07 09:28:12;;;;;;;1.60;1.50;;;;;;;;;;5093591;28;20190;-63
2022/12/07 09:30:39;;;;;;;1.90;1.80;;;;;;;;;;5093520;28;20595;-79
2022/12/07 09:33:07;;;;;;;3.75;1.73;;;;;;;;;;5093175;28;20284;-70
2022/12/07 09:35:34;;;;;;;2.38;1.67;;;;;;;;;;5092686;28;20278;-72
2022/12/07 09:38:01;;;;;;;5.43;2.28;;;;;;;;;;5091844;28;20187;-69
2022/12/07 09:40:29;;;;;;;2.13;1.92;;;;;;;;;;5104023;28;20265;-73
2022/12/07 09:42:56;;;;;;;1.58;1.48;;;;;;;;;;5112836;28;20553;-65
2022/12/07 09:45:24;;;;;;;1.33;1.15;;;;;;;;;;5113564;28;20190;-63
2022/12/07 09:47:51;;;;;;;1.75;1.20;;;;;;;;;;5113194;28;20272;-63
2022/12/07 09:50:21;;;;;;;1.40;1.30;;;;;;;;;;5113564;28;20276;-71
2022/12/07 09:52:49;;;;;;;1.80;1.45;;;;;;;;;;5113330;28;20222;-70
2022/12/07 09:55:17;;;;;;;1.70;1.60;;;;;;;;;;5113579;28;20660;-68
2022/12/07 09:57:44;;;;;;;4.03;2.03;;;;;;;;;;5113417;28;20289;-67
2022/12/07 10:00:14;;;;;;;3.50;2.35;;;;;;;;;;5113403;28;20190;-65
2022/12/07 10:02:42;;;;;;;2.15;1.95;;;;;;;;;;5113736;28;20276;-68
2022/12/07 10:05:13;;;;;;;1.90;1.80;;;;;;;;;;5113613;28;20190;-69
2022/12/07 10:07:41;;;;;;;1.90;1.80;;;;;;;;;;5113467;28;20273;-71
2022/12/07 10:10:14;;;;;;;2.00;1.90;;;;;;;;;;5113129;28;20194;-74
2022/12/07 10:12:53;;;;;;;2.55;1.92;;;;;;;;;;5113128;28;20210;-64
2022/12/07 10:15:20;;;;;;;2.70;2.33;;;;;;;;;;5113296;28;20292;-66
2022/12/07 10:17:49;;;;;;;2.05;1.90;;;;;;;;;;5113191;28;20622;-63
2022/12/07 10:20:23;;;;;;;2.00;1.90;;;;;;;;;;5112893;28;20281;-69
2022/12/07 10:23:02;;;;;;;1.83;1.73;;;;;;;;;;5112976;28;20287;-72
2022/12/07 10:25:31;;;;;;;2.15;1.77;;;;;;;;;;5113224;28;20278;-63
2022/12/07 10:27:59;;;;;;;1.92;1.73;;;;;;;;;;5111543;28;20451;-68
2022/12/07 10:30:26;;;;;;;2.35;2.15;;;;;;;;;;5112759;28;20454;-65
2022/12/07 10:32:53;;;;;;;2.20;2.10;;;;;;;;;;5112998;28;20228;-70
2022/12/07 10:35:26;;;;;;;2.40;2.30;;;;;;;;;;5112922;28;20285;-71
2022/12/07 10:37:53;;;;;;;2.10;1.90;;;;;;;;;;5100289;28;20621;-72
2022/12/07 10:40:33;;;;;;;3.25;3.03;;;;;;;;;;5092891;28;20222;-67
2022/12/07 10:43:15;;;;;;;4.10;3.40;;;;;;;;;;5093062;28;20194;-70
2022/12/07 10:45:44;;;;;;;3.45;3.15;;;;;;;;;;5092588;28;20198;-72
2022/12/07 10:48:13;;;;;;;2.45;2.35;;;;;;;;;;5092292;28;20317;-71
2022/12/07 10:50:46;;;;;;;2.53;1.98;;;;;;;;;;5092772;28;20206;-71
2022/12/07 10:53:29;;;;;;;1.95;1.85;;;;;;;;;;5092622;28;20642;-72
2022/12/07 10:56:04;;;;;;;2.10;2.00;;;;;;;;;;5096559;28;20195;-73
2022/12/07 10:58:38;;;;;;;4.53;2.40;;;;;;;;;;5096356;28;20283;-63
2022/12/07 11:01:10;;;;;;;2.50;2.30;;;;;;;;;;5096231;28;20195;-61
2022/12/07 11:03:46;;;;;;;2.47;2.28;;;;;;;;;;5096449;28;20194;-68
2022/12/07 11:06:18;;;;;;;2.53;2.00;;;;;;;;;;5099806;28;20226;-67
2022/12/07 11:08:52;;;;;;;2.45;2.22;;;;;;;;;;5096128;28;20659;-71
2022/12/07 11:11:24;;;;;;;2.03;1.92;;;;;;;;;;5096005;28;20226;-75
2022/12/07 11:13:55;;;;;;;1.83;1.73;;;;;;;;;;5096189;28;20198;-70
2022/12/07 11:16:30;;;;;;;3.15;1.90;;;;;;;;;;5094232;28;20282;-70
2022/12/07 11:19:05;;;;;;;2.92;1.80;;;;;;;;;;5096108;28;20190;-67
2022/12/07 11:21:38;;;;;;;2.90;2.50;;;;;;;;;;5095677;28;20302;-72
2022/12/07 11:24:07;;;;;;;2.40;2.20;;;;;;;;;;5095943;28;20604;-71
2022/12/07 11:26:43;;;;;;;5.63;2.70;;;;;;;;;;5095693;28;20745;-75
2022/12/07 11:29:18;;;;;;;2.38;2.20;;;;;;;;;;5095914;28;20285;-72
2022/12/07 11:31:52;;;;;;;3.13;2.60;;;;;;;;;;5096113;28;20654;-83
2022/12/07 11:34:25;;;;;;;3.33;2.78;;;;;;;;;;5095914;28;20301;-68
2022/12/07 11:36:54;;;;;;;2.50;2.30;;;;;;;;;;5104107;28;20606;-69
2022/12/07 11:39:24;;;;;;;1.98;1.88;;;;;;;;;;5109925;28;20195;-73
2022/12/07 11:41:54;;;;;;;2.50;2.30;;;;;;;;;;5095209;28;20233;-72
2022/12/07 11:44:27;;;;;;;3.00;2.75;;;;;;;;;;5094625;28;20187;-67
2022/12/07 11:46:57;;;;;;;2.88;2.60;;;;;;;;;;5108748;28;20317;-69
2022/12/07 11:49:28;;;;;;;2.92;2.72;;;;;;;;;;5115847;28;20384;-66
2022/12/07 11:51:59;;;;;;;2.40;2.20;;;;;;;;;;5095298;28;20215;-71
2022/12/07 11:54:28;;;;;;;2.55;2.35;;;;;;;;;;5095638;28;20191;-68
2022/12/07 11:56:57;;;;;;;5.40;3.65;;;;;;;;;;5095111;28;20277;-69
2022/12/07 11:59:27;;;;;;;3.70;3.40;;;;;;;;;;5095695;28;20698;-69
2022/12/07 12:01:56;;;;;;;2.85;2.65;;;;;;;;;;5095613;28;20203;-69
2022/12/07 12:04:27;;;;;;;3.38;3.13;;;;;;;;;;5094950;28;20281;-69
2022/12/07 12:06:53;;;;;;;3.08;2.78;;;;;;;;;;5094207;28;20302;-69
2022/12/07 12:09:24;;;;;;;3.63;3.33;;;;;;;;;;5094920;28;20616;-68
2022/12/07 12:12:01;;;;;;;3.00;2.80;;;;;;;;;;5094841;28;20225;-69
2022/12/07 12:14:34;;;;;;;2.75;2.47;;;;;;;;;;5095205;28;20210;-71
2022/12/07 12:17:08;;;;;;;2.40;2.20;;;;;;;;;;5094825;28;20277;-68
2022/12/07 12:19:37;;;;;;;3.53;2.58;;;;;;;;;;5094871;28;20216;-67
2022/12/07 12:22:07;;;;;;;2.42;2.30;;;;;;;;;;5094570;28;20195;-65
2022/12/07 12:24:36;;;;;;;3.95;2.55;;;;;;;;;;5094840;28;20194;-66
2022/12/07 12:27:05;;;;;;;3.92;2.65;;;;;;;;;;5094660;28;20187;-75
2022/12/07 12:29:34;;;;;;;3.00;2.80;;;;;;;;;;5095031;28;20196;-80
2022/12/07 12:32:22;;;;;;;3.28;2.90;;;;;;;;;;5094652;28;20293;-80
2022/12/07 12:35:02;;;;;;;2.65;2.13;;;;;;;;;;5086962;28;20228;-71
2022/12/07 12:37:42;;;;;;;6.80;2.45;;;;;;;;;;5094370;28;20651;-67
2022/12/07 12:40:30;;;;;;;1.92;1.83;;;;;;;;;;5094379;28;20193;-71
2022/12/07 12:42:59;;;;;;;3.88;2.20;;;;;;;;;;5094166;28;20195;-67
2022/12/07 12:45:27;;;;;;;7.00;2.42;;;;;;;;;;5094590;28;20195;-72
2022/12/07 12:47:58;;;;;;;1.97;1.70;;;;;;;;;;5094159;28;20697;-66
2022/12/07 12:50:27;;;;;;;2.25;2.05;;;;;;;;;;5094303;28;20449;-72
2022/12/07 12:53:01;;;;;;;3.67;1.80;;;;;;;;;;5094178;28;20305;-76
2022/12/07 12:55:48;;;;;;;3.55;2.08;;;;;;;;;;5094017;28;20278;-68
2022/12/07 12:58:33;;;;;;;3.93;2.37;;;;;;;;;;5094171;28;20196;-65
2022/12/07 13:01:19;;;;;;;6.65;2.75;;;;;;;;;;5094036;28;20504;-68
2022/12/07 13:03:54;;;;;;;2.88;2.67;;;;;;;;;;5093842;28;20275;-76
2022/12/07 13:06:35;;;;;;;3.20;2.42;;;;;;;;;;5093892;28;20286;-72
2022/12/07 13:09:02;;;;;;;5.13;2.20;;;;;;;;;;5094013;28;20203;-67
2022/12/07 13:11:31;;;;;;;2.67;2.45;;;;;;;;;;5096439;28;20251;-69
2022/12/07 13:14:13;;;;;;;3.43;2.20;;;;;;;;;;5093359;28;20690;-73
2022/12/07 13:16:42;;;;;;;2.80;2.10;;;;;;;;;;5092680;28;20548;-70
2022/12/07 13:19:29;;;;;;;8.02;4.78;;;;;;;;;;5092443;28;20445;-72
2022/12/07 13:21:57;;;;;;;3.20;2.90;;;;;;;;;;5095700;28;20279;-64
2022/12/07 13:24:24;;;;;;;6.22;2.72;;;;;;;;;;5093010;28;20451;-66
2022/12/07 13:26:57;;;;;;;5.90;2.80;;;;;;;;;;5093312;28;20230;-65
2022/12/07 13:29:24;;;;;;;3.03;2.53;;;;;;;;;;5093630;28;20463;-69
2022/12/07 13:31:52;;;;;;;5.43;3.10;;;;;;;;;;5093438;28;20545;-67
2022/12/07 13:34:30;;;;;;;3.83;2.45;;;;;;;;;;5093474;28;20286;-68
2022/12/07 13:36:58;;;;;;;5.83;2.40;;;;;;;;;;5093005;28;20736;-68
2022/12/07 13:39:26;;;;;;;4.45;2.17;;;;;;;;;;5093512;28;20956;-67
2022/12/07 13:41:54;;;;;;;4.00;2.63;;;;;;;;;;5093423;28;20196;-68
2022/12/07 13:44:22;;;;;;;3.70;1.95;;;;;;;;;;5092801;28;20189;-68
2022/12/07 13:46:51;;;;;;;2.30;2.10;;;;;;;;;;5092906;28;20310;-68
2022/12/07 13:49:21;;;;;;;4.50;2.92;;;;;;;;;;5093175;28;20282;-68
2022/12/07 13:51:48;;;;;;;3.28;2.40;;;;;;;;;;5092852;28;20200;-67
2022/12/07 13:54:16;;;;;;;5.23;2.10;;;;;;;;;;5104073;28;20279;-76
2022/12/07 13:56:43;;;;;;;3.47;2.20;;;;;;;;;;5104528;28;20452;-76
2022/12/07 13:59:14;;;;;;;5.00;2.10;;;;;;;;;;5092950;28;20191;-68
2022/12/07 14:01:43;;;;;;;7.32;3.40;;;;;;;;;;5092058;28;20456;-69
2022/12/07 14:04:34;;;;;;;5.67;2.90;;;;;;;;;;5092021;28;20195;-67
2022/12/07 14:07:02;;;;;;;3.67;2.03;;;;;;;;;;5077566;28;20544;-75
2022/12/07 14:09:31;;;;;;;3.45;2.53;;;;;;;;;;5092993;28;20456;-67
2022/12/07 14:11:59;;;;;;;3.47;2.00;;;;;;;;;;5092832;28;20208;-72
2022/12/07 14:14:28;;;;;;;2.17;1.98;;;;;;;;;;5092308;28;20971;-72
2022/12/07 14:16:59;;;;;;;3.25;1.58;;;;;;;;;;5092756;28;20195;-72
2022/12/07 14:19:43;;;;;;;2.40;2.13;;;;;;;;;;5092922;28;20199;-72
2022/12/07 14:22:10;;;;;;;2.60;2.27;;;;;;;;;;5092799;28;20481;-72
2022/12/07 14:24:44;;;;;;;4.65;2.05;;;;;;;;;;5092988;28;20540;-72
2022/12/07 14:27:18;;;;;;;4.70;2.90;;;;;;;;;;5092592;28;20286;-72
2022/12/07 14:29:45;;;;;;;4.30;1.90;;;;;;;;;;5095710;28;20761;-72
2022/12/07 14:32:30;;;;;;;2.88;2.20;;;;;;;;;;5096957;28;20957;-72
2022/12/07 14:34:58;;;;;;;4.30;2.30;;;;;;;;;;5095689;28;20191;-72
2022/12/07 14:37:25;;;;;;;4.25;2.15;;;;;;;;;;5096555;28;20692;-72
2022/12/07 14:39:53;;;;;;;3.30;1.95;;;;;;;;;;5096661;28;20191;-72
2022/12/07 14:42:21;;;;;;;6.05;2.70;;;;;;;;;;5096933;28;20279;-72
2022/12/07 14:44:48;;;;;;;5.68;3.15;;;;;;;;;;5096895;28;20202;-72
2022/12/07 14:47:15;;;;;;;5.57;2.53;;;;;;;;;;5096283;28;20629;-72
2022/12/07 14:49:42;;;;;;;2.95;1.92;;;;;;;;;;5096691;28;20637;-72
2022/12/07 14:52:12;;;;;;;4.70;2.28;;;;;;;;;;5096706;28;20277;-73
2022/12/07 14:54:39;;;;;;;3.75;1.92;;;;;;;;;;5078611;28;20282;-72